FDX1284 KMCI-KMEM
Flight info
| Callsign | FDX1284 |
|---|---|
| Flight time | 0h 54m |
| Altitude | 37000 |
| Route | RACER8 SGF WHOLL BRBBQ3 |
| Aircraft | MD11/H-SDE1E2E3FGHIJ2J3J4J5M1RWXY/LB1D1 |
Departure
| Time | 2026-05-07 14:54 |
|---|---|
| Airport | Kansas City International Airport (KMCI) |
Arrival
| Time | 2026-05-07 15:48 |
|---|---|
| Airport | Memphis International Airport (KMEM) |
| Time | Latitude | Longitude | Altitude | Speed | Heading |
|---|---|---|---|---|---|
| 2026-05-07 14:44 | 39.32135 | -94.71589 | 1022 ft | 0 kts | 104° |
| 2026-05-07 14:46 | 39.32166 | -94.71645 | 1022 ft | 0 kts | 187° |
| 2026-05-07 14:47 | 39.32198 | -94.71630 | 1022 ft | 0 kts | 195° |
| 2026-05-07 14:51 | 39.32165 | -94.71649 | 1022 ft | 11 kts | 218° |
| 2026-05-07 14:51 | 39.32157 | -94.71730 | 1022 ft | 9 kts | 275° |
| 2026-05-07 14:51 | 39.32170 | -94.71831 | 1022 ft | 12 kts | 281° |
| 2026-05-07 14:52 | 39.32187 | -94.71927 | 1022 ft | 10 kts | 283° |
| 2026-05-07 14:52 | 39.32190 | -94.71946 | 1023 ft | 0 kts | 283° |
| 2026-05-07 14:53 | 39.32198 | -94.71992 | 1023 ft | 11 kts | 283° |
| 2026-05-07 14:53 | 39.32205 | -94.72077 | 1023 ft | 3 kts | 248° |
| 2026-05-07 14:53 | 39.32181 | -94.72093 | 1023 ft | 7 kts | 199° |
| 2026-05-07 14:53 | 39.31911 | -94.72176 | 1022 ft | 80 kts | 193° |
| 2026-05-07 14:54 | 39.31122 | -94.72408 | 1023 ft | 149 kts | 193° |
| 2026-05-07 14:54 | 39.29986 | -94.72725 | 1353 ft | 176 kts | 193° |
| 2026-05-07 14:54 | 39.28792 | -94.73009 | 2376 ft | 169 kts | 195° |
| 2026-05-07 14:54 | 39.27622 | -94.73202 | 3296 ft | 174 kts | 193° |
| 2026-05-07 14:55 | 39.26391 | -94.73331 | 3909 ft | 181 kts | 192° |
| 2026-05-07 14:55 | 39.25150 | -94.73454 | 4381 ft | 179 kts | 192° |
| 2026-05-07 14:55 | 39.23892 | -94.73577 | 4563 ft | 181 kts | 192° |
| 2026-05-07 14:55 | 39.22596 | -94.73705 | 4834 ft | 199 kts | 192° |
| 2026-05-07 14:56 | 39.21126 | -94.73881 | 5090 ft | 225 kts | 192° |
| 2026-05-07 14:56 | 39.19473 | -94.73868 | 5305 ft | 256 kts | 176° |
| 2026-05-07 14:56 | 39.17701 | -94.73311 | 6134 ft | 265 kts | 170° |
| 2026-05-07 14:56 | 39.15911 | -94.72671 | 7083 ft | 270 kts | 170° |
| 2026-05-07 14:57 | 39.14071 | -94.72041 | 7958 ft | 276 kts | 171° |
| 2026-05-07 14:57 | 39.12183 | -94.71426 | 8800 ft | 283 kts | 171° |
| 2026-05-07 14:57 | 39.10254 | -94.70823 | 9663 ft | 289 kts | 171° |
| 2026-05-07 14:57 | 39.08264 | -94.70220 | 10248 ft | 306 kts | 172° |
| 2026-05-07 14:58 | 39.06114 | -94.69591 | 10401 ft | 336 kts | 171° |
| 2026-05-07 14:58 | 39.03730 | -94.68902 | 10572 ft | 364 kts | 171° |
| 2026-05-07 14:58 | 39.01226 | -94.68175 | 11297 ft | 372 kts | 171° |
| 2026-05-07 14:58 | 38.98680 | -94.67436 | 12062 ft | 380 kts | 171° |
| 2026-05-07 14:59 | 38.96078 | -94.66684 | 12765 ft | 387 kts | 172° |
| 2026-05-07 14:59 | 38.93435 | -94.65924 | 13492 ft | 394 kts | 172° |
| 2026-05-07 14:59 | 38.90752 | -94.65156 | 14170 ft | 401 kts | 172° |
| 2026-05-07 14:59 | 38.88006 | -94.64371 | 14845 ft | 406 kts | 172° |
| 2026-05-07 15:00 | 38.85233 | -94.63580 | 15509 ft | 410 kts | 172° |
| 2026-05-07 15:00 | 38.82438 | -94.62784 | 16158 ft | 415 kts | 172° |
| 2026-05-07 15:00 | 38.79606 | -94.61978 | 16782 ft | 419 kts | 172° |
| 2026-05-07 15:00 | 38.76748 | -94.61165 | 17448 ft | 423 kts | 173° |
| 2026-05-07 15:01 | 38.73859 | -94.60345 | 18083 ft | 427 kts | 173° |
| 2026-05-07 15:01 | 38.70939 | -94.59519 | 18654 ft | 431 kts | 173° |
| 2026-05-07 15:01 | 38.67994 | -94.58735 | 19221 ft | 433 kts | 174° |
| 2026-05-07 15:01 | 38.65032 | -94.57992 | 19824 ft | 436 kts | 175° |
| 2026-05-07 15:02 | 38.62047 | -94.57262 | 20377 ft | 438 kts | 175° |
| 2026-05-07 15:02 | 38.59047 | -94.56533 | 20934 ft | 440 kts | 175° |
| 2026-05-07 15:02 | 38.56025 | -94.55800 | 21446 ft | 443 kts | 176° |
| 2026-05-07 15:02 | 38.52989 | -94.55062 | 22021 ft | 446 kts | 176° |
| 2026-05-07 15:03 | 38.49933 | -94.54317 | 22555 ft | 449 kts | 176° |
| 2026-05-07 15:03 | 38.46852 | -94.53566 | 23103 ft | 452 kts | 176° |
| 2026-05-07 15:03 | 38.43740 | -94.52807 | 23668 ft | 456 kts | 176° |
| 2026-05-07 15:03 | 38.40622 | -94.52046 | 24138 ft | 459 kts | 176° |
| 2026-05-07 15:04 | 38.37475 | -94.51278 | 24634 ft | 462 kts | 176° |
| 2026-05-07 15:04 | 38.34308 | -94.50505 | 25125 ft | 465 kts | 176° |
| 2026-05-07 15:04 | 38.31115 | -94.49714 | 25622 ft | 469 kts | 175° |
| 2026-05-07 15:04 | 38.27937 | -94.48595 | 26102 ft | 481 kts | 166° |
| 2026-05-07 15:05 | 38.24913 | -94.46646 | 26576 ft | 496 kts | 152° |
| 2026-05-07 15:05 | 38.22196 | -94.43868 | 27044 ft | 507 kts | 141° |
| 2026-05-07 15:05 | 38.19718 | -94.40616 | 27483 ft | 514 kts | 136° |
| 2026-05-07 15:05 | 38.17335 | -94.37214 | 27928 ft | 518 kts | 135° |
| 2026-05-07 15:06 | 38.14924 | -94.33779 | 28405 ft | 521 kts | 136° |
| 2026-05-07 15:06 | 38.12468 | -94.30390 | 28853 ft | 524 kts | 137° |
| 2026-05-07 15:06 | 38.09947 | -94.27025 | 29274 ft | 526 kts | 139° |
| 2026-05-07 15:06 | 38.07381 | -94.23684 | 29721 ft | 529 kts | 139° |
| 2026-05-07 15:07 | 38.04784 | -94.20349 | 30137 ft | 532 kts | 140° |
| 2026-05-07 15:07 | 38.02200 | -94.17050 | 30445 ft | 537 kts | 140° |
| 2026-05-07 15:07 | 37.99566 | -94.13692 | 30794 ft | 539 kts | 140° |
| 2026-05-07 15:07 | 37.96928 | -94.10324 | 31225 ft | 538 kts | 140° |
| 2026-05-07 15:08 | 37.94296 | -94.06960 | 31684 ft | 537 kts | 140° |
| 2026-05-07 15:08 | 37.91670 | -94.03604 | 32143 ft | 536 kts | 140° |
| 2026-05-07 15:08 | 37.89050 | -94.00259 | 32581 ft | 535 kts | 141° |
| 2026-05-07 15:08 | 37.86433 | -93.96920 | 32949 ft | 534 kts | 141° |
| 2026-05-07 15:09 | 37.83816 | -93.93587 | 33337 ft | 534 kts | 141° |
| 2026-05-07 15:09 | 37.81201 | -93.90260 | 33728 ft | 533 kts | 141° |
| 2026-05-07 15:09 | 37.78589 | -93.86941 | 34106 ft | 532 kts | 142° |
| 2026-05-07 15:09 | 37.75977 | -93.83626 | 34416 ft | 532 kts | 142° |
| 2026-05-07 15:10 | 37.73367 | -93.80317 | 34719 ft | 532 kts | 142° |
| 2026-05-07 15:10 | 37.70749 | -93.77002 | 34974 ft | 532 kts | 142° |
| 2026-05-07 15:10 | 37.68133 | -93.73692 | 35240 ft | 532 kts | 142° |
| 2026-05-07 15:10 | 37.65532 | -93.70410 | 35442 ft | 532 kts | 143° |
| 2026-05-07 15:11 | 37.62898 | -93.67106 | 35650 ft | 533 kts | 143° |
| 2026-05-07 15:11 | 37.60271 | -93.63814 | 35908 ft | 533 kts | 143° |
| 2026-05-07 15:11 | 37.57644 | -93.60518 | 36170 ft | 533 kts | 143° |
| 2026-05-07 15:11 | 37.55035 | -93.57241 | 36421 ft | 532 kts | 143° |
| 2026-05-07 15:12 | 37.52415 | -93.53949 | 36654 ft | 532 kts | 143° |
| 2026-05-07 15:12 | 37.49797 | -93.50661 | 36896 ft | 532 kts | 143° |
| 2026-05-07 15:12 | 37.47189 | -93.47388 | 37080 ft | 532 kts | 143° |
| 2026-05-07 15:12 | 37.44569 | -93.44103 | 37115 ft | 533 kts | 143° |
| 2026-05-07 15:13 | 37.39288 | -93.37501 | 37125 ft | 537 kts | 144° |
| 2026-05-07 15:13 | 37.33995 | -93.30849 | 37124 ft | 542 kts | 141° |
| 2026-05-07 15:14 | 37.29245 | -93.23353 | 37126 ft | 553 kts | 133° |
| 2026-05-07 15:14 | 37.27065 | -93.19367 | 36963 ft | 554 kts | 131° |
| 2026-05-07 15:14 | 37.24935 | -93.15370 | 36699 ft | 549 kts | 131° |
| 2026-05-07 15:15 | 37.22810 | -93.11399 | 36419 ft | 548 kts | 131° |
| 2026-05-07 15:15 | 37.20666 | -93.07453 | 36150 ft | 547 kts | 132° |
| 2026-05-07 15:15 | 37.18499 | -93.03525 | 35846 ft | 549 kts | 133° |
| 2026-05-07 15:15 | 37.16301 | -92.99584 | 35583 ft | 552 kts | 133° |
| 2026-05-07 15:16 | 37.14093 | -92.95645 | 35313 ft | 553 kts | 133° |
| 2026-05-07 15:16 | 37.11882 | -92.91707 | 35062 ft | 553 kts | 133° |
| 2026-05-07 15:16 | 37.09697 | -92.87818 | 34819 ft | 553 kts | 133° |
| 2026-05-07 15:16 | 37.07483 | -92.83878 | 34562 ft | 553 kts | 133° |
| 2026-05-07 15:17 | 37.05270 | -92.79940 | 34300 ft | 553 kts | 133° |
| 2026-05-07 15:17 | 37.03055 | -92.76003 | 34024 ft | 553 kts | 133° |
| 2026-05-07 15:17 | 37.00839 | -92.72071 | 33751 ft | 553 kts | 132° |
| 2026-05-07 15:17 | 36.98626 | -92.68146 | 33462 ft | 552 kts | 132° |
| 2026-05-07 15:18 | 36.96410 | -92.64220 | 33202 ft | 551 kts | 133° |
| 2026-05-07 15:18 | 36.94194 | -92.60303 | 33138 ft | 555 kts | 134° |
| 2026-05-07 15:18 | 36.89713 | -92.52400 | 33143 ft | 558 kts | 134° |
| 2026-05-07 15:19 | 36.85227 | -92.44497 | 33142 ft | 558 kts | 134° |
| 2026-05-07 15:19 | 36.80716 | -92.36623 | 33149 ft | 558 kts | 134° |
| 2026-05-07 15:20 | 36.76212 | -92.28755 | 33135 ft | 558 kts | 135° |
| 2026-05-07 15:20 | 36.71681 | -92.20839 | 33112 ft | 563 kts | 136° |
| 2026-05-07 15:21 | 36.67110 | -92.12865 | 33147 ft | 567 kts | 135° |
| 2026-05-07 15:21 | 36.62526 | -92.04873 | 33152 ft | 567 kts | 136° |
| 2026-05-07 15:22 | 36.57939 | -91.96899 | 33152 ft | 566 kts | 136° |
| 2026-05-07 15:22 | 36.53345 | -91.88940 | 33147 ft | 567 kts | 136° |
| 2026-05-07 15:23 | 36.48722 | -91.80957 | 33091 ft | 569 kts | 137° |
| 2026-05-07 15:23 | 36.44095 | -91.72973 | 33148 ft | 569 kts | 137° |
| 2026-05-07 15:24 | 36.39466 | -91.65001 | 33154 ft | 569 kts | 137° |
| 2026-05-07 15:24 | 36.34816 | -91.57045 | 33154 ft | 569 kts | 137° |
| 2026-05-07 15:25 | 36.30156 | -91.49114 | 33157 ft | 569 kts | 137° |
| 2026-05-07 15:25 | 36.25503 | -91.41181 | 33153 ft | 569 kts | 137° |
| 2026-05-07 15:26 | 36.20843 | -91.33292 | 33144 ft | 562 kts | 141° |
| 2026-05-07 15:26 | 36.18280 | -91.29749 | 33150 ft | 542 kts | 151° |
| 2026-05-07 15:26 | 36.15467 | -91.26834 | 32580 ft | 528 kts | 159° |
| 2026-05-07 15:27 | 36.12369 | -91.24505 | 31670 ft | 501 kts | 169° |
| 2026-05-07 15:27 | 36.09254 | -91.22852 | 30863 ft | 491 kts | 174° |
| 2026-05-07 15:27 | 36.06064 | -91.21384 | 30085 ft | 493 kts | 174° |
| 2026-05-07 15:27 | 36.02854 | -91.19848 | 29290 ft | 496 kts | 172° |
| 2026-05-07 15:28 | 35.99678 | -91.18177 | 28699 ft | 495 kts | 169° |
| 2026-05-07 15:28 | 35.96540 | -91.16400 | 27945 ft | 496 kts | 167° |
| 2026-05-07 15:28 | 35.93438 | -91.14555 | 27288 ft | 492 kts | 166° |
| 2026-05-07 15:28 | 35.90386 | -91.12698 | 26727 ft | 488 kts | 166° |
| 2026-05-07 15:29 | 35.88373 | -91.11466 | 26485 ft | 486 kts | 166° |
| 2026-05-07 15:29 | 35.85362 | -91.09624 | 26301 ft | 477 kts | 166° |
| 2026-05-07 15:29 | 35.82460 | -91.07839 | 26196 ft | 459 kts | 166° |
| 2026-05-07 15:29 | 35.79613 | -91.06112 | 26115 ft | 454 kts | 166° |
| 2026-05-07 15:30 | 35.76773 | -91.04415 | 26040 ft | 453 kts | 167° |
| 2026-05-07 15:30 | 35.73938 | -91.02726 | 25336 ft | 447 kts | 167° |
| 2026-05-07 15:30 | 35.71200 | -91.01075 | 24702 ft | 433 kts | 167° |
| 2026-05-07 15:30 | 35.68515 | -90.99464 | 24088 ft | 429 kts | 167° |
| 2026-05-07 15:31 | 35.65828 | -90.97866 | 23417 ft | 427 kts | 166° |
| 2026-05-07 15:31 | 35.63174 | -90.96284 | 22753 ft | 420 kts | 166° |
| 2026-05-07 15:31 | 35.60559 | -90.94722 | 22128 ft | 416 kts | 166° |
| 2026-05-07 15:31 | 35.57968 | -90.93176 | 21531 ft | 412 kts | 165° |
| 2026-05-07 15:32 | 35.55404 | -90.91643 | 20964 ft | 408 kts | 163° |
| 2026-05-07 15:32 | 35.53009 | -90.89644 | 20895 ft | 429 kts | 148° |
| 2026-05-07 15:32 | 35.50999 | -90.86862 | 20406 ft | 435 kts | 133° |
| 2026-05-07 15:32 | 35.49214 | -90.83880 | 20386 ft | 435 kts | 135° |
| 2026-05-07 15:33 | 35.47360 | -90.80949 | 20250 ft | 433 kts | 139° |
| 2026-05-07 15:33 | 35.45282 | -90.78347 | 20081 ft | 422 kts | 148° |
| 2026-05-07 15:33 | 35.43045 | -90.76044 | 19891 ft | 417 kts | 152° |
| 2026-05-07 15:33 | 35.40782 | -90.73832 | 19728 ft | 416 kts | 152° |
| 2026-05-07 15:34 | 35.38534 | -90.71618 | 19566 ft | 415 kts | 150° |
| 2026-05-07 15:34 | 35.36306 | -90.69369 | 19349 ft | 415 kts | 149° |
| 2026-05-07 15:34 | 35.34095 | -90.67087 | 19110 ft | 414 kts | 149° |
| 2026-05-07 15:34 | 35.31911 | -90.64801 | 18884 ft | 413 kts | 148° |
| 2026-05-07 15:35 | 35.29739 | -90.62509 | 18653 ft | 411 kts | 148° |
| 2026-05-07 15:35 | 35.27578 | -90.60222 | 18404 ft | 410 kts | 148° |
| 2026-05-07 15:35 | 35.25428 | -90.57946 | 18122 ft | 409 kts | 147° |
| 2026-05-07 15:35 | 35.23296 | -90.55706 | 17682 ft | 397 kts | 151° |
| 2026-05-07 15:36 | 35.21106 | -90.53755 | 17296 ft | 382 kts | 156° |
| 2026-05-07 15:36 | 35.18912 | -90.52003 | 16914 ft | 372 kts | 158° |
| 2026-05-07 15:36 | 35.16752 | -90.50329 | 16513 ft | 365 kts | 158° |
| 2026-05-07 15:36 | 35.14611 | -90.48689 | 16036 ft | 361 kts | 158° |
| 2026-05-07 15:37 | 35.12502 | -90.47087 | 15546 ft | 350 kts | 158° |
| 2026-05-07 15:37 | 35.10495 | -90.45562 | 14995 ft | 339 kts | 157° |
| 2026-05-07 15:37 | 35.08583 | -90.43891 | 14407 ft | 341 kts | 150° |
| 2026-05-07 15:37 | 35.06715 | -90.42037 | 13686 ft | 350 kts | 148° |
| 2026-05-07 15:38 | 35.04814 | -90.40133 | 12911 ft | 357 kts | 148° |
| 2026-05-07 15:38 | 35.02872 | -90.38214 | 12152 ft | 362 kts | 148° |
| 2026-05-07 15:38 | 35.00923 | -90.36334 | 11348 ft | 352 kts | 151° |
| 2026-05-07 15:38 | 34.98902 | -90.34741 | 10532 ft | 341 kts | 156° |
| 2026-05-07 15:39 | 34.96866 | -90.33331 | 9798 ft | 332 kts | 158° |
| 2026-05-07 15:39 | 34.94860 | -90.31984 | 9025 ft | 326 kts | 154° |
| 2026-05-07 15:39 | 34.93103 | -90.30243 | 8242 ft | 326 kts | 136° |
| 2026-05-07 15:39 | 34.91617 | -90.28248 | 7705 ft | 306 kts | 133° |
| 2026-05-07 15:40 | 34.90269 | -90.26375 | 7162 ft | 283 kts | 133° |
| 2026-05-07 15:40 | 34.88996 | -90.24636 | 6728 ft | 270 kts | 133° |
| 2026-05-07 15:40 | 34.87747 | -90.22971 | 6288 ft | 262 kts | 133° |
| 2026-05-07 15:40 | 34.86538 | -90.21348 | 5926 ft | 257 kts | 128° |
| 2026-05-07 15:41 | 34.85475 | -90.19630 | 5582 ft | 252 kts | 124° |
| 2026-05-07 15:41 | 34.84464 | -90.17898 | 5282 ft | 248 kts | 124° |
| 2026-05-07 15:41 | 34.83455 | -90.16173 | 4938 ft | 251 kts | 123° |
| 2026-05-07 15:41 | 34.82475 | -90.14447 | 4665 ft | 242 kts | 114° |
| 2026-05-07 15:42 | 34.82092 | -90.12526 | 4673 ft | 233 kts | 84° |
| 2026-05-07 15:42 | 34.82316 | -90.10577 | 4710 ft | 233 kts | 76° |
| 2026-05-07 15:42 | 34.82609 | -90.08638 | 4567 ft | 234 kts | 77° |
| 2026-05-07 15:42 | 34.82852 | -90.06701 | 4245 ft | 231 kts | 78° |
| 2026-05-07 15:43 | 34.83047 | -90.04781 | 4009 ft | 225 kts | 81° |
| 2026-05-07 15:43 | 34.83207 | -90.02868 | 3994 ft | 228 kts | 81° |
| 2026-05-07 15:43 | 34.83431 | -90.00971 | 3984 ft | 226 kts | 72° |
| 2026-05-07 15:43 | 34.84051 | -89.99240 | 3997 ft | 221 kts | 52° |
| 2026-05-07 15:44 | 34.85141 | -89.97970 | 3998 ft | 217 kts | 29° |
| 2026-05-07 15:44 | 34.86560 | -89.97396 | 3911 ft | 212 kts | 7° |
| 2026-05-07 15:44 | 34.87985 | -89.97285 | 3560 ft | 196 kts | 4° |
| 2026-05-07 15:44 | 34.89308 | -89.97264 | 3104 ft | 187 kts | 1° |
| 2026-05-07 15:45 | 34.90559 | -89.97302 | 2948 ft | 178 kts | 1° |
| 2026-05-07 15:45 | 34.91799 | -89.97367 | 2671 ft | 177 kts | 359° |
| 2026-05-07 15:45 | 34.92970 | -89.97500 | 2327 ft | 164 kts | 358° |
| 2026-05-07 15:45 | 34.94081 | -89.97578 | 1941 ft | 156 kts | 2° |
| 2026-05-07 15:46 | 34.96266 | -89.97511 | 1594 ft | 159 kts | 3° |
| 2026-05-07 15:46 | 34.97392 | -89.97490 | 1446 ft | 163 kts | 3° |
| 2026-05-07 15:46 | 34.98556 | -89.97502 | 1238 ft | 166 kts | 1° |
| 2026-05-07 15:47 | 34.99664 | -89.97522 | 1030 ft | 156 kts | 0° |
| 2026-05-07 15:47 | 35.00803 | -89.97524 | 725 ft | 165 kts | 0° |
| 2026-05-07 15:47 | 35.01932 | -89.97545 | 474 ft | 161 kts | 1° |
| 2026-05-07 15:47 | 35.03020 | -89.97567 | 332 ft | 143 kts | 359° |
| 2026-05-07 15:48 | 35.03842 | -89.97582 | 329 ft | 107 kts | 359° |
| 2026-05-07 15:48 | 35.04455 | -89.97597 | 329 ft | 73 kts | 359° |
| 2026-05-07 15:48 | 35.04862 | -89.97606 | 327 ft | 49 kts | 359° |
| 2026-05-07 15:48 | 35.05128 | -89.97612 | 327 ft | 31 kts | 359° |
| 2026-05-07 15:49 | 35.05281 | -89.97615 | 329 ft | 26 kts | 359° |
| 2026-05-07 15:49 | 35.05425 | -89.97583 | 329 ft | 17 kts | 39° |
| 2026-05-07 15:49 | 35.05503 | -89.97506 | 331 ft | 11 kts | 25° |
| 2026-05-07 15:50 | 35.05583 | -89.97489 | 333 ft | 16 kts | 3° |
| 2026-05-07 15:50 | 35.05731 | -89.97486 | 335 ft | 27 kts | 1° |
| 2026-05-07 15:50 | 35.05876 | -89.97499 | 336 ft | 14 kts | 349° |
| 2026-05-07 15:50 | 35.05931 | -89.97456 | 334 ft | 8 kts | 63° |
| 2026-05-07 15:51 | 35.05938 | -89.97405 | 336 ft | 3 kts | 85° |
| 2026-05-07 15:51 | 35.05939 | -89.97395 | 335 ft | 2 kts | 87° |
| 2026-05-07 15:51 | 35.05944 | -89.97368 | 337 ft | 0 kts | 65° |
| 2026-05-07 15:51 | 35.05950 | -89.97361 | 337 ft | 4 kts | 47° |
| 2026-05-07 15:52 | 35.05967 | -89.97354 | 333 ft | 2 kts | 5° |
| 2026-05-07 15:52 | 35.06008 | -89.97354 | 335 ft | 0 kts | 1° |
| 2026-05-07 15:52 | 35.06010 | -89.97354 | 336 ft | 1 kts | 1° |
| 2026-05-07 15:52 | 35.06021 | -89.97354 | 336 ft | 1 kts | 1° |